createdAt,value
2018-09-13T00:00:47.149Z,0.00
2018-09-13T00:01:47.232Z,0.00
2018-09-13T00:02:47.713Z,0.00
2018-09-13T00:03:48.401Z,0.00
2018-09-13T00:04:47.127Z,0.00
2018-09-13T00:05:47.092Z,0.00
2018-09-13T00:06:47.672Z,0.00
2018-09-13T00:07:47.130Z,0.00
2018-09-13T00:08:47.185Z,0.00
2018-09-13T00:09:48.547Z,0.00
2018-09-13T00:10:47.052Z,0.00
2018-09-13T00:11:47.018Z,0.00
2018-09-13T00:12:47.139Z,0.00
2018-09-13T00:13:46.997Z,0.00
2018-09-13T00:14:47.037Z,0.00
2018-09-13T00:15:47.623Z,0.00
2018-09-13T00:16:46.964Z,0.00
2018-09-13T00:17:47.340Z,0.00
2018-09-13T00:18:47.034Z,0.00
2018-09-13T00:19:46.921Z,0.00
2018-09-13T00:20:46.933Z,0.00
2018-09-13T00:21:47.507Z,0.00
2018-09-13T00:22:46.888Z,0.00
2018-09-13T00:23:46.877Z,0.00
2018-09-13T00:24:46.868Z,0.00
2018-09-13T00:25:46.883Z,0.00
2018-09-13T00:26:46.843Z,0.00
2018-09-13T00:27:46.947Z,0.00
2018-09-13T00:28:46.817Z,0.00
2018-09-13T00:29:47.014Z,0.00
2018-09-13T00:30:46.821Z,0.00
2018-09-13T00:31:47.194Z,0.00
2018-09-13T00:32:46.767Z,0.00
2018-09-13T00:33:46.764Z,0.00
2018-09-13T00:34:46.744Z,0.00
2018-09-13T00:35:46.761Z,0.00
2018-09-13T00:36:46.719Z,0.00
2018-09-13T00:37:46.711Z,0.00
2018-09-13T00:38:46.695Z,0.00
2018-09-13T00:39:46.719Z,0.00
2018-09-13T00:40:46.698Z,0.00
2018-09-13T00:41:46.667Z,0.00
2018-09-13T00:42:46.654Z,0.00
2018-09-13T00:43:46.642Z,0.00
2018-09-13T00:44:46.628Z,0.00
2018-09-13T00:45:46.637Z,0.00
2018-09-13T00:46:46.608Z,0.00
2018-09-13T00:47:46.588Z,0.00
2018-09-13T00:48:46.590Z,0.00
2018-09-13T00:49:46.566Z,0.00
2018-09-13T00:50:46.582Z,0.00
2018-09-13T00:51:46.540Z,0.00
2018-09-13T00:52:46.538Z,0.00
2018-09-13T00:53:46.524Z,0.00
2018-09-13T00:54:46.514Z,0.00
2018-09-13T00:55:46.527Z,0.00
2018-09-13T00:56:46.489Z,0.00
2018-09-13T00:57:46.472Z,0.00
2018-09-13T00:58:46.465Z,0.00
2018-09-13T00:59:46.451Z,0.00
2018-09-13T01:00:46.459Z,0.00
2018-09-13T01:01:46.431Z,0.00
2018-09-13T01:02:46.413Z,0.00
2018-09-13T01:03:46.408Z,0.00
2018-09-13T01:04:46.388Z,0.00
2018-09-13T01:05:46.414Z,0.00
2018-09-13T01:06:46.364Z,0.00
2018-09-13T01:07:46.362Z,0.00
2018-09-13T01:08:46.339Z,0.00
2018-09-13T01:09:46.331Z,0.00
2018-09-13T01:10:46.322Z,0.00
2018-09-13T01:11:46.327Z,0.00
2018-09-13T01:12:46.297Z,0.00
2018-09-13T01:13:46.281Z,0.00
2018-09-13T01:14:46.277Z,0.00
2018-09-13T01:15:46.268Z,0.00
2018-09-13T01:16:46.270Z,0.00
2018-09-13T01:17:46.237Z,0.00
2018-09-13T01:18:46.230Z,0.00
2018-09-13T01:19:46.215Z,0.00
2018-09-13T01:20:46.201Z,0.00
2018-09-13T01:21:46.212Z,0.00
2018-09-13T01:22:46.184Z,0.00
2018-09-13T01:23:46.168Z,0.00
2018-09-13T01:24:46.158Z,0.00
2018-09-13T01:25:46.146Z,0.00
2018-09-13T01:26:46.164Z,0.00
2018-09-13T01:27:46.119Z,0.00
2018-09-13T01:28:46.104Z,0.00
2018-09-13T01:29:46.101Z,0.00
2018-09-13T01:30:46.088Z,0.00
2018-09-13T01:31:46.097Z,0.00
2018-09-13T01:32:46.060Z,0.00
2018-09-13T01:33:46.052Z,0.00
2018-09-13T01:34:46.037Z,0.00
2018-09-13T01:35:46.033Z,0.00
2018-09-13T01:36:46.035Z,0.00
2018-09-13T01:37:46.009Z,0.00
2018-09-13T01:38:45.989Z,0.00
2018-09-13T01:39:45.979Z,0.00
2018-09-13T01:40:45.971Z,0.00
2018-09-13T01:41:45.991Z,0.00
2018-09-13T01:42:45.948Z,0.00
2018-09-13T01:43:45.930Z,0.00
2018-09-13T01:44:45.926Z,0.00
2018-09-13T01:45:45.908Z,0.00
2018-09-13T01:46:45.903Z,0.00
2018-09-13T01:47:45.914Z,0.00
2018-09-13T01:48:45.872Z,0.00
2018-09-13T01:49:45.862Z,0.00
2018-09-13T01:50:45.855Z,0.00
2018-09-13T01:51:45.842Z,0.00
2018-09-13T01:52:45.849Z,0.00
2018-09-13T01:53:45.813Z,0.00
2018-09-13T01:54:45.814Z,0.00
2018-09-13T01:55:45.795Z,0.00
2018-09-13T01:56:45.785Z,0.00
2018-09-13T01:57:45.796Z,0.00
2018-09-13T01:58:45.764Z,0.00
2018-09-13T01:59:45.747Z,0.00
2018-09-13T02:00:45.737Z,0.00
2018-09-13T02:01:45.729Z,0.00
2018-09-13T02:02:45.716Z,0.00
2018-09-13T02:03:45.725Z,0.00
2018-09-13T02:04:45.688Z,0.00
2018-09-13T02:05:45.677Z,0.00
2018-09-13T02:06:45.668Z,0.00
2018-09-13T02:07:45.658Z,0.00
2018-09-13T02:08:45.667Z,0.00
2018-09-13T02:09:45.635Z,0.00
2018-09-13T02:10:45.615Z,0.00
2018-09-13T02:11:45.611Z,0.00
2018-09-13T02:12:45.596Z,0.00
2018-09-13T02:13:45.584Z,0.00
2018-09-13T02:14:45.595Z,0.00
2018-09-13T02:15:45.557Z,0.00
2018-09-13T02:16:45.553Z,0.00
2018-09-13T02:17:45.536Z,0.00
2018-09-13T02:18:45.530Z,0.00
2018-09-13T02:19:45.547Z,0.00
2018-09-13T02:20:45.497Z,0.00
2018-09-13T02:21:45.488Z,0.00
2018-09-13T02:22:45.485Z,0.00
2018-09-13T02:23:45.468Z,0.00
2018-09-13T02:24:45.454Z,0.00
2018-09-13T02:25:45.462Z,0.00
2018-09-13T02:26:45.437Z,0.00
2018-09-13T02:27:45.416Z,0.00
2018-09-13T02:28:45.408Z,0.00
2018-09-13T02:29:45.399Z,0.00
2018-09-13T02:30:45.421Z,0.00
2018-09-13T02:31:45.380Z,0.00
2018-09-13T02:32:45.359Z,0.00
2018-09-13T02:33:45.356Z,0.00
2018-09-13T02:34:45.337Z,0.00
2018-09-13T02:35:45.332Z,0.00
2018-09-13T02:36:45.338Z,0.00
2018-09-13T02:37:45.306Z,0.00
2018-09-13T02:38:45.292Z,0.00
2018-09-13T02:39:45.296Z,0.00
2018-09-13T02:40:45.271Z,0.00
2018-09-13T02:41:45.291Z,0.00
2018-09-13T02:42:45.243Z,0.00
2018-09-13T02:43:45.242Z,0.00
2018-09-13T02:44:45.225Z,0.00
2018-09-13T08:59:14.577Z,416.25
2018-09-13T09:00:14.541Z,438.75
2018-09-13T09:01:14.551Z,466.88
2018-09-13T09:02:14.536Z,483.75
2018-09-13T09:03:14.508Z,489.38
2018-09-13T09:04:14.495Z,523.12
2018-09-13T09:05:14.480Z,556.88
2018-09-13T09:06:14.553Z,551.25
2018-09-13T09:07:14.454Z,483.75
2018-09-13T09:08:14.446Z,421.88
2018-09-13T09:09:14.436Z,399.38
2018-09-13T09:10:14.418Z,410.62
2018-09-13T09:11:14.437Z,421.88
2018-09-13T09:12:14.400Z,405.00
2018-09-13T09:13:14.392Z,410.62
2018-09-13T09:14:14.376Z,393.75
2018-09-13T09:15:14.364Z,354.38
2018-09-13T09:16:14.378Z,331.88
2018-09-13T09:17:14.338Z,331.88
2018-09-13T09:18:14.328Z,326.25
2018-09-13T09:19:14.317Z,286.88
2018-09-13T09:20:14.297Z,286.88
2018-09-13T09:21:14.312Z,320.62
2018-09-13T09:22:14.274Z,331.88
2018-09-13T09:23:14.264Z,343.12
2018-09-13T09:24:14.265Z,348.75
2018-09-13T09:25:14.240Z,360.00
2018-09-13T09:26:14.251Z,382.50
2018-09-13T09:27:14.214Z,399.38
2018-09-13T09:28:14.200Z,399.38
2018-09-13T09:29:14.243Z,416.25
2018-09-13T09:30:14.185Z,483.75
2018-09-13T09:31:14.188Z,556.88
2018-09-13T09:32:14.155Z,618.75
2018-09-13T09:33:14.147Z,601.88
2018-09-13T09:34:14.139Z,630.00
2018-09-13T09:35:14.126Z,641.25
2018-09-13T09:36:14.144Z,618.75
2018-09-13T09:37:14.103Z,568.12
2018-09-13T09:38:14.096Z,551.25
2018-09-13T09:39:14.084Z,517.50
2018-09-13T09:40:14.072Z,461.25
2018-09-13T09:41:14.080Z,534.38
2018-09-13T09:42:14.052Z,663.75
2018-09-13T09:43:14.029Z,691.88
2018-09-13T09:44:14.044Z,714.38
2018-09-13T09:45:14.007Z,720.00
2018-09-13T09:46:14.022Z,658.12
2018-09-13T09:47:13.992Z,585.00
2018-09-13T09:48:14.186Z,540.00
2018-09-13T09:49:13.971Z,483.75
2018-09-13T09:50:13.972Z,461.25
2018-09-13T09:51:13.969Z,472.50
2018-09-13T09:52:13.959Z,450.00
2018-09-13T09:53:13.911Z,433.12
2018-09-13T09:54:13.906Z,416.25
2018-09-13T09:55:13.895Z,421.88
2018-09-13T09:56:14.007Z,410.62
2018-09-13T09:57:13.868Z,382.50
2018-09-13T09:58:13.853Z,393.75
2018-09-13T09:59:13.852Z,376.88
2018-09-13T10:00:13.838Z,360.00
2018-09-13T10:01:13.845Z,320.62
2018-09-13T10:02:13.809Z,298.12
2018-09-13T10:03:13.794Z,298.12
2018-09-13T10:04:13.802Z,292.50
2018-09-13T10:05:13.781Z,303.75
2018-09-13T10:06:13.787Z,303.75
2018-09-13T10:07:13.754Z,315.00
2018-09-13T10:08:13.741Z,326.25
2018-09-13T10:09:13.728Z,337.50
2018-09-13T10:10:13.715Z,343.12
2018-09-13T10:11:13.731Z,365.62
2018-09-13T10:12:13.688Z,388.12
2018-09-13T10:13:13.678Z,393.75
2018-09-13T10:14:13.659Z,427.50
2018-09-13T10:15:13.782Z,433.12
2018-09-13T10:16:13.662Z,416.25
2018-09-13T10:17:13.636Z,410.62
2018-09-13T10:18:13.617Z,421.88
2018-09-13T10:19:13.613Z,444.38
2018-09-13T10:20:13.598Z,511.88
2018-09-13T10:21:13.622Z,568.12
2018-09-13T10:22:13.571Z,613.12
2018-09-13T10:23:13.566Z,680.62
2018-09-13T10:24:13.545Z,748.12
2018-09-13T10:25:13.541Z,810.00
2018-09-13T10:26:13.524Z,821.25
2018-09-13T10:27:13.537Z,793.12
2018-09-13T10:28:13.500Z,731.25
2018-09-13T10:29:13.537Z,646.88
2018-09-13T10:30:13.481Z,562.50
2018-09-13T10:31:13.462Z,573.75
2018-09-13T10:32:13.472Z,630.00
2018-09-13T10:33:13.444Z,663.75
2018-09-13T10:34:13.435Z,753.75
2018-09-13T10:35:13.421Z,888.75
2018-09-13T10:36:13.402Z,894.38
2018-09-13T10:37:13.427Z,815.62
2018-09-13T10:38:13.388Z,714.38
2018-09-13T10:39:13.367Z,635.62
2018-09-13T10:40:13.350Z,596.25
2018-09-13T10:41:13.346Z,590.62
2018-09-13T10:42:13.357Z,540.00
2018-09-13T10:43:13.313Z,500.62
2018-09-13T10:44:13.308Z,455.62
2018-09-13T10:45:13.293Z,450.00
2018-09-13T10:46:13.278Z,483.75
2018-09-13T10:47:13.297Z,562.50
2018-09-13T10:48:13.294Z,545.62
2018-09-13T10:49:13.251Z,652.50
2018-09-13T10:50:13.236Z,765.00
2018-09-13T10:51:13.224Z,826.88
2018-09-13T10:52:13.254Z,781.88
2018-09-13T10:53:13.197Z,697.50
2018-09-13T10:54:13.232Z,652.50
2018-09-13T10:55:13.179Z,579.38
2018-09-13T10:56:13.168Z,556.88
2018-09-13T10:57:13.165Z,562.50
2018-09-13T10:58:13.159Z,511.88
2018-09-13T10:59:13.199Z,506.25
2018-09-13T11:00:13.125Z,534.38
2018-09-13T11:01:13.108Z,624.38
2018-09-13T11:02:13.102Z,708.75
2018-09-13T11:03:13.109Z,669.38
2018-09-13T11:04:13.172Z,573.75
2018-09-13T11:05:13.063Z,495.00
2018-09-13T11:06:13.048Z,466.88
2018-09-13T11:07:13.040Z,495.00
2018-09-13T11:08:13.050Z,534.38
2018-09-13T11:09:13.013Z,540.00
2018-09-13T11:10:13.005Z,506.25
2018-09-13T11:11:13.009Z,483.75
2018-09-13T11:12:12.980Z,483.75
2018-09-13T11:13:12.993Z,472.50
2018-09-13T11:14:12.960Z,478.12
2018-09-13T11:15:12.941Z,523.12
2018-09-13T11:16:12.936Z,630.00
2018-09-13T11:17:12.920Z,759.38
2018-09-13T11:18:12.945Z,956.25
2018-09-13T11:19:12.904Z,1136.25
2018-09-13T11:20:12.881Z,1237.50
2018-09-13T11:21:12.879Z,1260.00
2018-09-13T11:22:12.859Z,1164.38
2018-09-13T11:23:12.855Z,1057.50
2018-09-13T11:24:12.863Z,1001.25
2018-09-13T11:25:12.831Z,911.25
2018-09-13T11:26:12.815Z,849.38
2018-09-13T11:27:12.807Z,894.38
2018-09-13T11:28:12.794Z,900.00
2018-09-13T11:29:12.800Z,905.62
2018-09-13T11:30:12.765Z,978.75
2018-09-13T11:31:12.762Z,1040.62
2018-09-13T11:32:12.742Z,1035.00
2018-09-13T11:33:12.734Z,950.62
2018-09-13T11:34:12.742Z,866.25
2018-09-13T11:35:12.712Z,798.75
2018-09-13T11:36:12.696Z,720.00
2018-09-13T11:37:12.688Z,669.38
2018-09-13T11:38:12.679Z,618.75
2018-09-13T11:39:12.679Z,562.50
2018-09-13T11:40:12.731Z,517.50
2018-09-13T11:41:12.643Z,500.62
2018-09-13T11:42:12.628Z,528.75
2018-09-13T11:43:12.616Z,495.00
2018-09-13T11:44:12.620Z,461.25
2018-09-13T11:45:12.592Z,450.00
2018-09-13T11:46:12.585Z,466.88
2018-09-13T11:47:12.563Z,495.00
2018-09-13T11:48:12.556Z,528.75
2018-09-13T11:49:12.566Z,573.75
2018-09-13T11:50:12.528Z,613.12
2018-09-13T11:51:12.524Z,691.88
2018-09-13T11:52:12.504Z,810.00
2018-09-13T11:53:12.501Z,911.25
2018-09-13T11:54:12.508Z,978.75
2018-09-13T11:55:12.473Z,1051.88
2018-09-13T11:56:12.465Z,1068.75
2018-09-13T11:57:12.444Z,1063.12
2018-09-13T11:58:12.437Z,1023.75
2018-09-13T11:59:12.449Z,1068.75
2018-09-13T12:00:12.415Z,1164.38
2018-09-13T12:01:12.456Z,1141.88
2018-09-13T12:02:12.392Z,1091.25
2018-09-13T12:03:12.376Z,1141.88
2018-09-13T12:04:12.389Z,1237.50
2018-09-13T12:05:12.356Z,1310.62
2018-09-13T12:06:12.342Z,1344.38
2018-09-13T12:07:12.335Z,1080.00
2018-09-13T12:08:12.318Z,916.88
2018-09-13T12:09:12.332Z,759.38
2018-09-13T12:10:12.296Z,641.25
2018-09-13T12:11:12.288Z,579.38
2018-09-13T12:12:12.274Z,579.38
2018-09-13T12:13:12.262Z,590.62
2018-09-13T12:14:12.274Z,585.00
2018-09-13T12:15:12.240Z,551.25
2018-09-13T12:16:12.232Z,528.75
2018-09-13T12:17:12.220Z,601.88
2018-09-13T12:18:12.248Z,720.00
2018-09-13T12:19:12.257Z,793.12
2018-09-13T12:20:12.184Z,866.25
2018-09-13T12:21:12.177Z,922.50
2018-09-13T12:22:12.159Z,1006.88
2018-09-13T12:23:12.148Z,1006.88
2018-09-13T12:24:12.161Z,933.75
2018-09-13T12:25:12.124Z,877.50
2018-09-13T12:26:12.115Z,905.62
2018-09-13T12:27:12.100Z,956.25
2018-09-13T12:28:12.095Z,1006.88
2018-09-13T12:29:12.099Z,984.38
2018-09-13T12:30:12.074Z,973.12
2018-09-13T12:31:12.054Z,1096.88
2018-09-13T12:32:12.046Z,1856.25
2018-09-13T12:33:12.032Z,2086.88
2018-09-13T12:34:12.040Z,1800.00
2018-09-13T12:35:12.008Z,2570.62
2018-09-13T12:36:12.002Z,2452.50
2018-09-13T12:37:11.987Z,2778.75
2018-09-13T12:38:11.971Z,2683.12
2018-09-13T12:39:11.989Z,1985.62
2018-09-13T12:40:11.955Z,2430.00
2018-09-13T12:41:11.934Z,2221.88
2018-09-13T12:42:11.929Z,2598.75
2018-09-13T12:43:11.918Z,2626.88
2018-09-13T12:44:11.933Z,2683.12
2018-09-13T12:45:11.894Z,2334.38
2018-09-13T12:46:11.878Z,1940.62
2018-09-13T12:47:11.874Z,2463.75
2018-09-13T12:48:11.864Z,2205.00
2018-09-13T12:49:11.867Z,2053.12
2018-09-13T12:50:11.843Z,1906.88
2018-09-13T12:51:11.830Z,1513.12
2018-09-13T12:52:11.819Z,1226.25
2018-09-13T12:53:11.803Z,849.38
2018-09-13T12:54:11.811Z,658.12
2018-09-13T12:55:11.786Z,528.75
2018-09-13T12:56:11.814Z,438.75
2018-09-13T12:57:11.761Z,421.88
2018-09-13T12:58:11.750Z,450.00
2018-09-13T12:59:11.759Z,489.38
2018-09-13T13:00:11.723Z,517.50
2018-09-13T13:01:11.715Z,613.12
2018-09-13T13:02:11.700Z,652.50
2018-09-13T13:03:11.693Z,675.00
2018-09-13T13:04:11.694Z,703.12
2018-09-13T13:05:11.670Z,725.62
2018-09-13T13:06:11.649Z,759.38
2018-09-13T13:07:11.641Z,804.38
2018-09-13T13:08:11.638Z,843.75
2018-09-13T13:09:11.643Z,900.00
2018-09-13T13:10:11.615Z,961.88
2018-09-13T13:11:11.593Z,984.38
2018-09-13T13:12:11.584Z,1012.50
2018-09-13T13:13:11.575Z,1018.12
2018-09-13T13:14:11.582Z,1023.75
2018-09-13T13:15:11.550Z,1057.50
2018-09-13T13:16:11.539Z,1153.12
2018-09-13T13:17:11.524Z,1265.62
2018-09-13T13:18:11.515Z,1305.00
2018-09-13T13:19:11.541Z,1276.88
2018-09-13T13:20:11.498Z,1395.00
2018-09-13T13:21:11.481Z,1957.50
2018-09-13T13:22:11.466Z,1985.62
2018-09-13T13:23:11.457Z,1996.88
2018-09-13T13:24:11.460Z,1800.00
2018-09-13T13:25:11.437Z,1597.50
2018-09-13T13:26:11.422Z,1878.75
2018-09-13T13:27:11.488Z,1816.88
2018-09-13T13:28:11.401Z,2300.62
2018-09-13T13:29:11.413Z,2491.88
2018-09-13T13:30:11.377Z,1783.12
2018-09-13T13:31:11.361Z,1710.00
2018-09-13T13:32:11.356Z,1659.38
2018-09-13T13:33:11.336Z,2002.50
2018-09-13T13:34:11.355Z,1726.88
2018-09-13T13:35:11.314Z,1479.38
2018-09-13T13:36:11.301Z,1479.38
2018-09-13T13:37:11.293Z,1468.12
2018-09-13T13:38:11.284Z,1428.75
2018-09-13T13:39:11.300Z,1378.12
2018-09-13T13:40:11.264Z,1372.50
2018-09-13T13:41:11.280Z,1366.88
2018-09-13T13:42:11.242Z,1411.88
2018-09-13T13:43:11.224Z,1406.25
2018-09-13T13:44:11.243Z,1350.00
2018-09-13T13:45:11.198Z,1282.50
2018-09-13T13:46:11.190Z,1344.38
2018-09-13T13:47:11.181Z,1029.38
2018-09-13T13:48:11.170Z,984.38
2018-09-13T13:49:11.178Z,945.00
2018-09-13T13:50:11.140Z,714.38
2018-09-13T13:51:11.137Z,596.25
2018-09-13T13:52:11.128Z,540.00
2018-09-13T13:53:11.106Z,506.25
2018-09-13T13:54:11.118Z,483.75
2018-09-13T13:55:11.082Z,478.12
2018-09-13T13:56:11.072Z,478.12
2018-09-13T13:57:11.064Z,478.12
2018-09-13T13:58:11.057Z,478.12
2018-09-13T13:59:11.064Z,478.12
2018-09-13T14:00:11.037Z,489.38
2018-09-13T14:01:11.020Z,495.00
2018-09-13T14:02:11.009Z,506.25
2018-09-13T14:03:10.993Z,506.25
2018-09-13T14:04:11.004Z,511.88
2018-09-13T14:05:10.974Z,517.50
2018-09-13T14:06:10.959Z,523.12
2018-09-13T14:07:10.949Z,511.88
2018-09-13T14:08:10.939Z,489.38
2018-09-13T14:09:10.946Z,478.12
2018-09-13T14:10:10.974Z,472.50
2018-09-13T14:11:10.908Z,461.25
2018-09-13T14:12:10.890Z,455.62
2018-09-13T14:13:10.875Z,450.00
2018-09-13T14:14:10.890Z,438.75
2018-09-13T14:15:10.860Z,438.75
2018-09-13T14:16:10.844Z,433.12
2018-09-13T14:17:10.836Z,438.75
2018-09-13T14:18:10.821Z,444.38
2018-09-13T14:19:10.835Z,444.38
2018-09-13T14:20:10.801Z,444.38
2018-09-13T14:21:10.786Z,461.25
2018-09-13T14:22:10.778Z,483.75
2018-09-13T14:23:10.769Z,528.75
2018-09-13T14:24:10.773Z,601.88
2018-09-13T14:25:10.747Z,663.75
2018-09-13T14:26:10.733Z,720.00
2018-09-13T14:27:10.719Z,753.75
2018-09-13T14:28:10.713Z,776.25
2018-09-13T14:29:10.715Z,793.12
2018-09-13T14:30:10.685Z,821.25
2018-09-13T14:31:10.676Z,866.25
2018-09-13T14:32:10.662Z,877.50
2018-09-13T14:33:10.653Z,905.62
2018-09-13T14:34:10.667Z,911.25
2018-09-13T14:35:10.624Z,900.00
2018-09-13T14:36:10.619Z,866.25
2018-09-13T14:37:10.606Z,821.25
2018-09-13T14:38:10.590Z,781.88
2018-09-13T14:39:10.609Z,770.62
2018-09-13T14:40:10.645Z,770.62
2018-09-13T14:41:10.568Z,776.25
2018-09-13T14:42:10.551Z,781.88
2018-09-13T14:43:10.530Z,798.75
2018-09-13T14:44:10.540Z,832.50
2018-09-13T14:45:10.515Z,855.00
2018-09-13T14:46:10.494Z,832.50
2018-09-13T14:47:10.490Z,804.38
2018-09-13T14:48:10.471Z,781.88
2018-09-13T14:49:10.492Z,776.25
2018-09-13T14:50:10.446Z,815.62
2018-09-13T14:51:10.444Z,804.38
2018-09-13T14:52:10.434Z,753.75
2018-09-13T14:53:10.412Z,703.12
2018-09-13T14:54:10.432Z,793.12
2018-09-13T14:55:10.390Z,883.12
2018-09-13T14:56:10.447Z,832.50
2018-09-13T14:57:10.378Z,781.88
2018-09-13T14:58:10.360Z,810.00
2018-09-13T14:59:10.369Z,821.25
2018-09-13T15:00:10.339Z,731.25
2018-09-13T15:01:10.319Z,646.88
2018-09-13T15:02:10.318Z,646.88
2018-09-13T15:03:10.296Z,703.12
2018-09-13T15:04:10.311Z,697.50
2018-09-13T15:05:10.281Z,686.25
2018-09-13T15:06:10.266Z,686.25
2018-09-13T15:07:10.294Z,675.00
2018-09-13T15:08:10.240Z,680.62
2018-09-13T15:09:10.260Z,686.25
2018-09-13T15:10:10.217Z,669.38
2018-09-13T15:11:10.214Z,669.38
2018-09-13T15:12:10.202Z,669.38
2018-09-13T15:13:10.185Z,669.38
2018-09-13T15:14:10.202Z,675.00
2018-09-13T15:15:10.166Z,658.12
2018-09-13T15:16:10.156Z,652.50
2018-09-13T15:17:10.146Z,641.25
2018-09-13T15:18:10.126Z,601.88
2018-09-13T15:19:10.124Z,579.38
2018-09-13T15:20:10.126Z,573.75
2018-09-13T15:21:10.100Z,568.12
2018-09-13T15:22:10.085Z,568.12
2018-09-13T15:23:10.072Z,579.38
2018-09-13T15:24:10.101Z,585.00
2018-09-13T15:25:10.073Z,573.75
2018-09-13T15:26:10.042Z,562.50
2018-09-13T15:27:10.021Z,556.88
2018-09-13T15:28:10.011Z,540.00
2018-09-13T15:29:10.009Z,523.12
2018-09-13T15:30:10.015Z,500.62
2018-09-13T15:31:09.992Z,489.38
2018-09-13T15:32:09.972Z,500.62
2018-09-13T15:33:09.950Z,528.75
2018-09-13T15:34:09.943Z,551.25
2018-09-13T15:35:09.956Z,590.62
2018-09-13T15:36:09.919Z,630.00
2018-09-13T15:37:09.964Z,618.75
2018-09-13T15:38:09.901Z,607.50
2018-09-13T15:39:09.882Z,613.12
2018-09-13T15:40:09.898Z,630.00
2018-09-13T15:41:09.863Z,641.25
2018-09-13T15:42:09.848Z,641.25
2018-09-13T15:43:09.850Z,630.00
2018-09-13T15:44:09.828Z,607.50
2018-09-13T15:45:09.844Z,573.75
2018-09-13T15:46:09.806Z,540.00
2018-09-13T15:47:09.796Z,511.88
2018-09-13T15:48:09.785Z,483.75
2018-09-13T15:49:09.769Z,427.50
2018-09-13T15:50:09.783Z,382.50
2018-09-13T15:51:09.746Z,326.25
2018-09-13T15:52:09.731Z,343.12
2018-09-13T15:53:09.727Z,348.75
2018-09-13T15:54:09.711Z,343.12
2018-09-13T15:55:09.729Z,331.88
2018-09-13T15:56:09.696Z,320.62
2018-09-13T15:57:09.672Z,320.62
2018-09-13T15:58:09.670Z,275.62
2018-09-13T15:59:09.649Z,281.25
2018-09-13T16:00:09.660Z,292.50
2018-09-13T16:01:09.632Z,292.50
2018-09-13T16:02:09.613Z,292.50
2018-09-13T16:03:09.611Z,292.50
2018-09-13T16:04:09.592Z,298.12
2018-09-13T16:05:09.601Z,303.75
2018-09-13T16:06:09.569Z,315.00
2018-09-13T16:07:09.562Z,309.38
2018-09-13T16:08:09.548Z,303.75
2018-09-13T16:09:09.537Z,309.38
2018-09-13T16:10:09.543Z,303.75
2018-09-13T16:11:09.513Z,303.75
2018-09-13T16:12:09.509Z,303.75
2018-09-13T16:13:09.559Z,315.00
2018-09-13T16:14:09.520Z,331.88
2018-09-13T16:15:09.661Z,331.88
2018-09-13T16:16:09.453Z,326.25
2018-09-13T16:17:09.443Z,320.62
2018-09-13T16:18:09.436Z,315.00
2018-09-13T16:19:09.414Z,315.00
2018-09-13T16:20:09.425Z,315.00
2018-09-13T16:21:09.402Z,315.00
2018-09-13T16:22:09.385Z,315.00
2018-09-13T16:23:09.370Z,315.00
2018-09-13T16:24:09.357Z,315.00
2018-09-13T16:25:09.377Z,315.00
2018-09-13T16:26:09.391Z,315.00
2018-09-13T16:27:09.325Z,303.75
2018-09-13T16:28:09.349Z,292.50
2018-09-13T16:29:09.305Z,281.25
2018-09-13T16:30:09.320Z,264.38
2018-09-13T16:31:09.310Z,258.75
2018-09-13T16:32:09.269Z,247.50
2018-09-13T16:33:09.261Z,241.88
2018-09-13T16:34:09.247Z,230.62
2018-09-13T16:35:09.330Z,219.38
2018-09-13T16:36:09.227Z,213.75
2018-09-13T16:37:09.208Z,208.12
2018-09-13T16:38:09.203Z,202.50
2018-09-13T16:39:09.189Z,196.88
2018-09-13T16:40:09.202Z,185.62
2018-09-13T16:41:09.160Z,185.62
2018-09-13T16:42:09.158Z,185.62
2018-09-13T16:43:09.136Z,180.00
2018-09-13T16:44:09.125Z,180.00
2018-09-13T16:45:09.143Z,180.00
2018-09-13T16:46:09.101Z,185.62
2018-09-13T16:47:09.147Z,191.25
2018-09-13T16:48:09.091Z,196.88
2018-09-13T16:49:09.082Z,196.88
2018-09-13T16:50:09.097Z,196.88
2018-09-13T16:51:09.060Z,196.88
2018-09-13T16:52:09.044Z,191.25
2018-09-13T16:53:09.064Z,185.62
2018-09-13T16:54:09.018Z,180.00
2018-09-13T16:55:09.040Z,168.75
2018-09-13T16:56:08.988Z,163.12
2018-09-13T16:57:08.986Z,157.50
2018-09-13T16:58:08.967Z,151.88
2018-09-13T16:59:08.965Z,146.25
2018-09-13T17:00:08.978Z,140.62
2018-09-13T17:01:08.931Z,135.00
2018-09-13T17:02:08.979Z,140.62
2018-09-13T17:03:08.905Z,129.38
2018-09-13T17:04:08.900Z,129.38
2018-09-13T17:05:08.910Z,123.75
2018-09-13T17:06:08.876Z,123.75
2018-09-13T17:07:08.868Z,118.12
2018-09-13T17:08:08.856Z,123.75
2018-09-13T17:09:08.843Z,118.12
2018-09-13T17:10:08.852Z,112.50
2018-09-13T17:11:08.809Z,112.50
2018-09-13T17:12:08.809Z,106.88
2018-09-13T17:13:08.795Z,101.25
2018-09-13T17:14:08.786Z,101.25
2018-09-13T17:15:08.787Z,101.25
2018-09-13T17:16:08.757Z,95.62
2018-09-13T17:17:08.748Z,95.62
2018-09-13T17:18:08.733Z,90.00
2018-09-13T17:19:08.723Z,90.00
2018-09-13T17:20:08.780Z,84.38
2018-09-13T17:21:08.700Z,84.38
2018-09-13T17:22:08.697Z,78.75
2018-09-13T17:23:08.675Z,78.75
2018-09-13T17:24:08.664Z,73.12
2018-09-13T17:25:08.671Z,67.50
2018-09-13T17:26:08.645Z,67.50
2018-09-13T17:27:08.643Z,61.88
2018-09-13T17:28:08.615Z,61.88
2018-09-13T17:29:08.607Z,61.88
2018-09-13T17:30:08.613Z,56.25
2018-09-13T17:31:08.589Z,56.25
2018-09-13T17:32:08.577Z,50.62
2018-09-13T17:33:08.554Z,50.62
2018-09-13T17:34:08.597Z,45.00
2018-09-13T17:35:08.561Z,39.38
2018-09-13T17:36:08.542Z,39.38
2018-09-13T17:37:08.527Z,39.38
2018-09-13T17:38:08.499Z,33.75
2018-09-13T17:39:08.497Z,33.75
2018-09-13T17:40:08.514Z,28.12
2018-09-13T17:41:08.460Z,28.12
2018-09-13T17:42:08.455Z,28.12
2018-09-13T17:43:08.550Z,22.50
2018-09-13T17:44:08.438Z,22.50
2018-09-13T17:45:08.439Z,22.50
2018-09-13T17:46:08.413Z,16.88
2018-09-13T17:47:08.396Z,16.88
2018-09-13T17:48:08.455Z,16.88
2018-09-13T17:49:08.379Z,11.25
2018-09-13T17:50:08.407Z,11.25
2018-09-13T17:51:08.356Z,11.25
2018-09-13T17:52:08.339Z,11.25
2018-09-13T17:53:08.328Z,11.25
2018-09-13T17:54:08.318Z,5.62
2018-09-13T17:55:08.322Z,5.62
2018-09-13T17:56:08.293Z,5.62
2018-09-13T17:57:08.288Z,5.62
2018-09-13T17:58:08.281Z,5.62
2018-09-13T17:59:08.254Z,5.62
2018-09-13T18:00:08.261Z,5.62
2018-09-13T18:01:08.236Z,0.00
2018-09-13T18:02:08.218Z,0.00
2018-09-13T18:03:08.214Z,0.00
2018-09-13T18:04:08.201Z,0.00
2018-09-13T18:05:08.202Z,0.00
2018-09-13T18:06:08.178Z,0.00
2018-09-13T18:07:08.158Z,0.00
2018-09-13T18:08:08.148Z,0.00
2018-09-13T18:09:08.137Z,0.00
2018-09-13T18:10:08.148Z,0.00
2018-09-13T18:11:08.159Z,0.00
2018-09-13T18:12:08.107Z,0.00
2018-09-13T18:13:08.090Z,0.00
2018-09-13T18:14:08.088Z,0.00
2018-09-13T18:15:08.116Z,0.00
2018-09-13T18:16:08.061Z,0.00
2018-09-13T18:17:08.043Z,0.00
2018-09-13T18:18:08.038Z,0.00
2018-09-13T18:19:08.012Z,0.00
2018-09-13T18:20:08.010Z,0.00
2018-09-13T18:21:08.009Z,0.00
2018-09-13T18:22:08.140Z,0.00
2018-09-13T18:23:07.963Z,0.00
2018-09-13T18:24:08.011Z,0.00
2018-09-13T18:25:07.938Z,0.00
2018-09-13T18:26:07.951Z,0.00
2018-09-13T18:27:07.914Z,0.00
2018-09-13T18:28:07.907Z,0.00
2018-09-13T18:29:07.899Z,0.00
2018-09-13T18:30:07.882Z,0.00
2018-09-13T18:31:07.899Z,0.00
2018-09-13T18:32:07.862Z,0.00
2018-09-13T18:33:07.848Z,0.00
2018-09-13T18:34:07.833Z,0.00
2018-09-13T18:35:07.835Z,0.00
2018-09-13T18:36:07.841Z,0.00
2018-09-13T18:37:07.799Z,0.00
2018-09-13T18:38:07.789Z,0.00
2018-09-13T18:39:07.780Z,0.00
2018-09-13T18:40:07.770Z,0.00
2018-09-13T18:41:07.773Z,0.00
2018-09-13T18:42:07.748Z,0.00
2018-09-13T18:43:07.730Z,0.00
2018-09-13T18:44:07.715Z,0.00
2018-09-13T18:45:07.763Z,0.00
2018-09-13T18:46:07.720Z,0.00
2018-09-13T18:47:07.690Z,0.00
2018-09-13T18:48:07.675Z,0.00
2018-09-13T18:49:07.660Z,0.00
2018-09-13T18:50:07.651Z,0.00
2018-09-13T18:51:07.660Z,0.00
2018-09-13T18:52:07.625Z,0.00
2018-09-13T18:53:07.617Z,0.00
2018-09-13T18:54:07.609Z,0.00
2018-09-13T18:55:07.595Z,0.00